Time;durP1;ratioP1;P1;durP2;ratioP2;P2;SDS_P1;SDS_P2;PMS_P1;PMS_P2;Temp;Humidity;BMP_temperature;BMP_pressure;BME280_temperature;BME280_humidity;BME280_pressure;Samples;Min_cycle;Max_cycle;Signal;HPM_P1;HPM_P2
2023/04/11 00:02:21;;;;;;;2.90;1.00;;;;;;;14.42;69.00;99928.75;5025306;28;20409;-74
2023/04/11 00:04:47;;;;;;;4.13;1.33;;;;;;;14.39;69.99;99934.78;5022734;28;20557;-75
2023/04/11 00:07:12;;;;;;;1.60;1.50;;;;;;;14.32;70.99;99928.78;5028752;28;20477;-75
2023/04/11 00:09:37;;;;;;;1.23;0.95;;;;;;;14.23;72.23;99933.19;5044786;28;20482;-74
2023/04/11 00:12:03;;;;;;;3.40;1.20;;;;;;;14.20;72.74;99941.94;5026560;28;20399;-74
2023/04/11 00:14:31;;;;;;;2.47;1.17;;;;;;;14.19;73.09;99937.59;5043022;28;20407;-74
2023/04/11 00:16:59;;;;;;;1.70;1.20;;;;;;;14.19;73.59;99945.78;5017166;28;20888;-74
2023/04/11 00:19:28;;;;;;;1.27;1.10;;;;;;;14.19;74.24;99949.31;5011869;28;20397;-74
2023/04/11 00:21:57;;;;;;;2.38;0.90;;;;;;;14.14;74.72;99967.59;5017624;28;20398;-74
2023/04/11 00:24:22;;;;;;;1.73;1.10;;;;;;;13.96;76.55;99953.50;5023005;28;20431;-73
2023/04/11 00:26:48;;;;;;;2.47;1.10;;;;;;;13.98;76.81;99961.41;5041873;28;20494;-73
2023/04/11 00:29:13;;;;;;;1.70;1.60;;;;;;;13.98;77.09;99954.03;5044324;28;20804;-73
2023/04/11 00:31:38;;;;;;;2.30;0.90;;;;;;;13.83;78.21;99942.41;5012892;28;20739;-73
2023/04/11 00:34:04;;;;;;;0.83;0.83;;;;;;;13.96;78.09;99939.06;5016244;28;20408;-73
2023/04/11 00:36:30;;;;;;;1.15;1.05;;;;;;;13.99;78.27;99952.91;5024170;28;20395;-74
2023/04/11 00:38:57;;;;;;;3.35;1.10;;;;;;;13.92;78.54;99951.63;5031831;28;20883;-73
2023/04/11 00:41:23;;;;;;;1.13;1.10;;;;;;;13.88;78.81;99966.88;5028145;28;20873;-74
2023/04/11 00:43:48;;;;;;;1.98;1.40;;;;;;;13.94;79.02;99979.38;5020788;28;20473;-73
2023/04/11 00:46:15;;;;;;;4.63;1.87;;;;;;;13.92;78.84;99987.03;5020003;28;20388;-73
2023/04/11 00:48:43;;;;;;;2.78;1.58;;;;;;;13.85;79.52;99998.22;5035330;28;20400;-74
2023/04/11 00:51:09;;;;;;;1.52;1.00;;;;;;;13.90;79.98;100008.25;5021755;28;20415;-74
2023/04/11 00:53:36;;;;;;;2.30;1.30;;;;;;;13.97;80.14;100011.50;5027818;28;20389;-74
2023/04/11 00:56:01;;;;;;;1.70;1.60;;;;;;;14.10;79.72;100021.00;5023985;28;20395;-74
2023/04/11 00:58:27;;;;;;;2.05;1.08;;;;;;;14.15;79.04;100043.63;5017248;28;20403;-74
2023/04/11 01:00:53;;;;;;;2.05;1.00;;;;;;;14.08;78.88;100047.72;5028550;28;20401;-74
2023/04/11 01:03:18;;;;;;;3.10;0.40;;;;;;;13.88;77.74;100043.16;5025631;28;20474;-75
2023/04/11 01:05:45;;;;;;;1.20;0.52;;;;;;;13.78;76.34;100026.81;5018289;28;20466;-75
2023/04/11 01:08:12;;;;;;;0.60;0.30;;;;;;;13.73;75.72;100021.41;5012478;28;20507;-74
2023/04/11 01:10:41;;;;;;;0.98;0.60;;;;;;;13.67;75.06;100038.81;5028521;28;20479;-74
2023/04/11 01:13:07;;;;;;;0.47;0.40;;;;;;;13.52;74.50;100064.19;5018663;28;20893;-74
2023/04/11 01:15:32;;;;;;;1.10;0.65;;;;;;;13.45;74.57;100055.47;5037176;28;20416;-75
2023/04/11 01:18:00;;;;;;;0.70;0.23;;;;;;;13.36;74.70;100038.06;5036111;28;20394;-75
2023/04/11 01:20:27;;;;;;;1.70;0.30;;;;;;;13.38;74.36;100025.00;5031102;28;21050;-74
2023/04/11 01:22:55;;;;;;;0.63;0.40;;;;;;;13.42;74.58;100020.63;5012228;28;20408;-74
2023/04/11 01:25:21;;;;;;;1.70;0.32;;;;;;;13.45;74.15;100017.38;5037533;28;20406;-74
2023/04/11 01:27:47;;;;;;;0.70;0.40;;;;;;;13.41;74.38;100010.81;5018220;28;20443;-74
2023/04/11 01:30:13;;;;;;;1.50;0.30;;;;;;;13.44;74.24;100021.16;5028171;28;20391;-74
2023/04/11 01:32:38;;;;;;;1.13;0.50;;;;;;;13.41;74.40;100014.38;5030814;28;20403;-74
2023/04/11 01:35:04;;;;;;;1.70;0.40;;;;;;;13.45;74.44;100012.75;5022879;28;20400;-74
2023/04/11 01:37:30;;;;;;;0.68;0.40;;;;;;;13.55;74.35;100017.34;5012689;28;20396;-74
2023/04/11 01:39:55;;;;;;;1.70;0.40;;;;;;;13.61;74.18;100029.03;5028020;28;20953;-74
2023/04/11 01:42:21;;;;;;;2.57;0.50;;;;;;;13.49;74.33;100016.56;5016096;28;20417;-74
2023/04/11 01:44:49;;;;;;;2.40;0.80;;;;;;;13.57;74.17;100011.66;5023591;28;20401;-74
2023/04/11 01:47:15;;;;;;;4.03;0.50;;;;;;;13.51;73.84;100014.34;5011823;28;20742;-74
2023/04/11 01:49:41;;;;;;;1.60;0.50;;;;;;;13.52;73.93;100020.63;5023104;28;20402;-74
2023/04/11 01:52:06;;;;;;;0.80;0.40;;;;;;;13.47;73.85;100013.28;5030790;28;20406;-74
2023/04/11 01:54:31;;;;;;;5.37;0.40;;;;;;;13.48;73.96;100031.25;5023588;28;20396;-74
2023/04/11 01:56:57;;;;;;;0.38;0.20;;;;;;;13.38;73.98;100033.16;5026997;28;20407;-74
2023/04/11 01:59:22;;;;;;;2.63;0.63;;;;;;;13.26;74.20;100028.00;5036722;28;20392;-75
2023/04/11 02:01:47;;;;;;;2.70;0.50;;;;;;;13.06;74.70;100032.59;5026779;28;20763;-74
2023/04/11 02:04:12;;;;;;;1.90;0.40;;;;;;;13.00;75.19;100045.38;5012129;28;20664;-74
2023/04/11 02:06:37;;;;;;;1.50;0.40;;;;;;;13.13;75.02;100046.78;5021594;28;20391;-74
2023/04/11 02:09:03;;;;;;;1.40;0.30;;;;;;;12.89;75.81;100051.88;5027012;28;20504;-74
2023/04/11 02:11:29;;;;;;;1.08;0.40;;;;;;;12.84;76.02;100039.06;5027880;28;20449;-75
2023/04/11 02:13:54;;;;;;;0.80;0.23;;;;;;;12.82;76.47;100037.72;5011754;28;20459;-74
2023/04/11 02:16:24;;;;;;;1.30;0.40;;;;;;;12.89;76.11;100030.13;5017951;28;20811;-74
2023/04/11 02:18:50;;;;;;;1.33;0.30;;;;;;;13.12;74.99;100039.69;5024917;28;20430;-74
2023/04/11 02:21:16;;;;;;;1.70;0.50;;;;;;;13.25;74.80;100033.69;5015279;28;20571;-74
2023/04/11 02:23:41;;;;;;;4.40;0.60;;;;;;;13.20;74.84;100034.53;5026835;28;20420;-74
2023/04/11 02:26:06;;;;;;;3.60;0.50;;;;;;;13.07;75.55;100026.88;5019698;28;20743;-74
2023/04/11 02:28:32;;;;;;;0.83;0.50;;;;;;;12.87;76.49;100035.84;5018481;28;20957;-75
2023/04/11 02:30:57;;;;;;;1.10;0.50;;;;;;;12.96;76.49;100045.09;5024834;28;20463;-74
2023/04/11 02:33:23;;;;;;;1.40;0.47;;;;;;;12.89;77.02;100041.00;5040784;28;20446;-74
2023/04/11 02:35:48;;;;;;;1.77;0.50;;;;;;;12.89;77.64;100035.56;5024105;28;20393;-74
2023/04/11 02:38:13;;;;;;;1.33;0.50;;;;;;;12.92;77.45;100043.19;5022280;28;20456;-74
2023/04/11 02:40:39;;;;;;;1.67;0.37;;;;;;;12.92;77.39;100044.00;5015496;28;20749;-74
2023/04/11 02:43:04;;;;;;;2.00;0.53;;;;;;;13.11;76.94;100044.31;5026052;28;20419;-74
2023/04/11 02:45:29;;;;;;;3.00;0.80;;;;;;;13.09;76.33;100053.84;5027949;28;20902;-74
2023/04/11 02:47:55;;;;;;;1.83;0.43;;;;;;;12.91;77.11;100041.53;5029245;28;20395;-74
2023/04/11 02:50:20;;;;;;;2.53;0.40;;;;;;;12.96;76.61;100041.56;5017712;28;20393;-74
2023/04/11 02:52:48;;;;;;;2.50;0.50;;;;;;;13.08;76.11;100042.09;5027189;28;20391;-74
2023/04/11 02:55:13;;;;;;;3.75;0.47;;;;;;;13.00;75.71;100057.06;5011300;28;20397;-74
2023/04/11 02:57:38;;;;;;;3.10;0.50;;;;;;;12.99;75.99;100073.66;5020537;28;20383;-74
2023/04/11 03:00:08;;;;;;;2.10;0.60;;;;;;;13.04;75.94;100073.66;5030039;28;20401;-74
2023/04/11 03:02:34;;;;;;;0.90;0.60;;;;;;;12.87;76.31;100064.94;5016141;28;20408;-74
2023/04/11 03:05:02;;;;;;;1.40;0.37;;;;;;;12.62;77.82;100051.28;5025069;28;20390;-74
2023/04/11 03:07:31;;;;;;;1.65;0.45;;;;;;;12.48;78.28;100061.81;5025748;28;20399;-74
2023/04/11 03:09:56;;;;;;;4.35;0.55;;;;;;;12.40;79.49;100075.94;5014585;28;20404;-74
2023/04/11 03:12:25;;;;;;;2.27;1.03;;;;;;;12.69;78.55;100079.84;5030546;28;20398;-75
2023/04/11 03:14:50;;;;;;;2.08;0.82;;;;;;;12.87;77.50;100092.13;5019287;28;20441;-75
2023/04/11 03:17:16;;;;;;;1.50;0.53;;;;;;;12.88;77.54;100091.84;5025904;28;20381;-74
2023/04/11 03:19:41;;;;;;;3.00;0.70;;;;;;;12.99;76.98;100100.84;5015058;28;20464;-74
2023/04/11 03:22:06;;;;;;;1.13;0.50;;;;;;;12.99;76.98;100092.69;5041922;28;20386;-74
2023/04/11 03:24:31;;;;;;;3.57;0.70;;;;;;;13.00;77.14;100097.06;5030509;28;20397;-74
2023/04/11 03:26:57;;;;;;;3.60;0.60;;;;;;;12.92;77.35;100105.72;5021304;28;20403;-75
2023/04/11 03:29:23;;;;;;;2.00;0.80;;;;;;;12.93;77.54;100110.09;5022975;28;20428;-74
2023/04/11 03:31:49;;;;;;;2.35;0.70;;;;;;;13.00;77.29;100105.22;5029130;28;20902;-74
2023/04/11 03:34:14;;;;;;;2.75;0.75;;;;;;;13.01;77.31;100101.41;5017787;28;20399;-74
2023/04/11 03:36:40;;;;;;;2.17;0.80;;;;;;;13.02;77.34;100105.75;5036907;28;20414;-74
2023/04/11 03:39:05;;;;;;;2.43;0.80;;;;;;;12.98;77.45;100102.75;5023661;28;20431;-74
2023/04/11 03:41:30;;;;;;;3.40;0.70;;;;;;;12.90;77.52;100108.75;5027825;28;20442;-75
2023/04/11 03:43:55;;;;;;;2.53;0.70;;;;;;;12.86;77.77;100104.09;5017560;28;20776;-74
2023/04/11 03:46:21;;;;;;;3.03;1.17;;;;;;;12.85;78.14;100097.00;5029463;28;20520;-74
2023/04/11 03:48:46;;;;;;;1.40;0.60;;;;;;;12.87;77.77;100113.91;5022777;28;20441;-74
2023/04/11 03:51:11;;;;;;;4.10;1.13;;;;;;;12.83;77.84;100104.63;5021043;28;20393;-74
2023/04/11 03:53:37;;;;;;;1.85;0.73;;;;;;;12.82;77.74;100098.38;5014512;28;20410;-75
2023/04/11 03:56:03;;;;;;;5.27;0.90;;;;;;;12.78;77.99;100101.88;5029779;28;20400;-74
2023/04/11 03:58:28;;;;;;;0.90;0.60;;;;;;;12.81;77.86;100104.88;5021434;28;20490;-74
2023/04/11 04:00:54;;;;;;;2.63;0.70;;;;;;;12.87;77.53;100103.00;5038677;28;20397;-74
2023/04/11 04:03:19;;;;;;;3.53;0.93;;;;;;;12.87;77.81;100120.16;5037911;28;20418;-74
2023/04/11 04:05:45;;;;;;;2.72;0.98;;;;;;;12.86;77.81;100114.97;5017298;28;20893;-74
2023/04/11 04:08:10;;;;;;;4.37;1.10;;;;;;;12.84;77.93;100111.72;5028717;28;20385;-74
2023/04/11 04:10:35;;;;;;;3.78;0.77;;;;;;;12.88;77.87;100107.34;5028965;28;20401;-75
2023/04/11 04:13:00;;;;;;;1.57;0.40;;;;;;;12.83;78.14;100110.06;5042836;28;20398;-74
2023/04/11 04:15:26;;;;;;;3.00;0.70;;;;;;;12.90;77.93;100105.19;5027267;28;20397;-74
2023/04/11 04:17:51;;;;;;;2.40;0.80;;;;;;;12.93;77.52;100112.81;5028221;28;20400;-74
2023/04/11 04:20:16;;;;;;;2.10;0.63;;;;;;;12.92;77.34;100109.28;5013322;28;20397;-75
2023/04/11 04:22:42;;;;;;;4.80;0.93;;;;;;;12.79;77.70;100111.69;5026062;28;20820;-74
2023/04/11 04:25:11;;;;;;;3.20;0.40;;;;;;;12.77;77.56;100101.09;5016954;28;20950;-75
2023/04/11 04:27:36;;;;;;;1.50;0.80;;;;;;;12.57;78.08;100098.31;5028015;28;20424;-74
2023/04/11 04:30:02;;;;;;;3.23;1.20;;;;;;;12.42;79.03;100095.50;5025372;28;20744;-74
2023/04/11 04:32:29;;;;;;;2.45;0.70;;;;;;;12.34;78.86;100096.03;5039097;28;20406;-74
2023/04/11 04:34:54;;;;;;;0.90;0.40;;;;;;;12.49;78.15;100098.81;5028370;28;20487;-74
2023/04/11 04:37:22;;;;;;;0.90;0.40;;;;;;;12.61;77.63;100098.59;5035308;28;20494;-75
2023/04/11 04:39:55;;;;;;;0.70;0.30;;;;;;;12.67;76.80;100113.84;5039972;28;20943;-74
2023/04/11 04:42:26;;;;;;;3.70;0.70;;;;;;;12.67;76.40;100120.09;5040677;28;20417;-75
2023/04/11 04:44:52;;;;;;;0.40;0.40;;;;;;;12.61;76.25;100136.66;5045375;28;20405;-74
2023/04/11 04:47:18;;;;;;;1.83;0.43;;;;;;;12.57;76.11;100144.50;5046577;28;20959;-74
2023/04/11 04:49:45;;;;;;;0.63;0.30;;;;;;;12.55;75.48;100159.44;5023774;28;20393;-74
2023/04/11 04:52:13;;;;;;;0.70;0.25;;;;;;;12.43;75.28;100163.19;5026058;28;20759;-74
2023/04/11 04:54:38;;;;;;;1.60;0.50;;;;;;;12.39;74.70;100153.94;5014441;28;20389;-74
2023/04/11 04:57:05;;;;;;;0.50;0.43;;;;;;;12.45;74.39;100157.47;5016982;28;20528;-74
2023/04/11 04:59:30;;;;;;;1.80;0.68;;;;;;;12.41;74.03;100165.34;5024714;28;20744;-74
2023/04/11 05:01:56;;;;;;;4.60;0.80;;;;;;;12.38;74.06;100179.47;5012529;28;20404;-74
2023/04/11 05:04:21;;;;;;;1.48;0.30;;;;;;;12.36;74.34;100180.81;5028177;28;20427;-74
2023/04/11 05:06:47;;;;;;;0.60;0.30;;;;;;;12.31;74.36;100181.63;5019896;28;20907;-74
2023/04/11 05:09:13;;;;;;;2.40;0.40;;;;;;;12.31;74.33;100180.78;5027874;28;20412;-74
2023/04/11 05:11:38;;;;;;;0.40;0.28;;;;;;;12.30;74.69;100177.25;5023384;28;20458;-74
2023/04/11 05:14:06;;;;;;;0.77;0.40;;;;;;;12.38;74.85;100194.97;5017401;28;20538;-74
2023/04/11 05:16:31;;;;;;;1.50;0.60;;;;;;;12.32;75.36;100196.00;5029014;28;20402;-74
2023/04/11 05:18:56;;;;;;;2.30;0.70;;;;;;;12.35;75.56;100201.72;5012366;28;20400;-74
2023/04/11 05:21:21;;;;;;;1.60;0.30;;;;;;;12.33;75.85;100205.78;5023014;28;20947;-74
2023/04/11 05:23:47;;;;;;;1.60;0.40;;;;;;;12.18;76.40;100198.38;5030600;28;20426;-74
2023/04/11 05:26:12;;;;;;;2.38;0.60;;;;;;;12.14;76.86;100210.84;5021766;28;20410;-74
2023/04/11 05:28:38;;;;;;;2.40;0.50;;;;;;;12.18;76.26;100214.69;5058258;28;20748;-74
2023/04/11 05:31:03;;;;;;;1.30;0.20;;;;;;;12.11;75.65;100210.53;5019624;28;20395;-75
2023/04/11 05:33:32;;;;;;;1.30;0.70;;;;;;;12.06;75.28;100210.50;5028736;28;20472;-75
2023/04/11 05:35:57;;;;;;;2.15;0.35;;;;;;;11.96;75.25;100217.50;5030443;28;20882;-75
2023/04/11 05:38:22;;;;;;;1.63;0.50;;;;;;;11.89;75.52;100221.50;5027083;28;20401;-74
2023/04/11 05:40:47;;;;;;;2.10;0.60;;;;;;;11.90;75.23;100221.25;5020261;28;20410;-74
2023/04/11 05:43:13;;;;;;;0.83;0.30;;;;;;;11.92;75.38;100227.22;5026791;28;20419;-74
2023/04/11 05:45:40;;;;;;;0.98;0.52;;;;;;;11.98;74.95;100222.69;5023235;28;20768;-75
2023/04/11 05:48:09;;;;;;;2.38;0.60;;;;;;;11.91;75.02;100239.19;5020897;28;20397;-75
2023/04/11 05:50:35;;;;;;;2.20;0.30;;;;;;;11.99;74.76;100234.38;5028127;28;20483;-77
2023/04/11 05:53:01;;;;;;;1.50;0.70;;;;;;;11.96;74.66;100236.50;5038089;28;20486;-76
2023/04/11 05:55:26;;;;;;;0.68;0.30;;;;;;;11.94;74.50;100235.94;5026984;28;20408;-76
2023/04/11 05:57:51;;;;;;;3.07;0.30;;;;;;;11.90;74.47;100229.41;5038217;28;20747;-75
2023/04/11 06:00:17;;;;;;;1.83;0.43;;;;;;;11.92;74.69;100245.44;5024821;28;20419;-75
2023/04/11 06:02:43;;;;;;;1.55;0.50;;;;;;;12.01;74.50;100253.91;5029890;28;20981;-74
2023/04/11 06:05:12;;;;;;;1.70;0.70;;;;;;;12.03;74.12;100260.72;5030135;28;20410;-75
2023/04/11 06:07:38;;;;;;;1.35;0.55;;;;;;;11.93;74.18;100269.59;5036447;28;20437;-75
2023/04/11 06:10:05;;;;;;;2.13;0.73;;;;;;;11.93;74.72;100268.78;5023186;28;20424;-75
2023/04/11 06:12:31;;;;;;;1.58;0.40;;;;;;;11.92;74.36;100278.81;5028656;28;20403;-74
2023/04/11 06:14:57;;;;;;;2.97;0.53;;;;;;;11.98;74.07;100271.56;5031008;28;20405;-75
2023/04/11 06:17:22;;;;;;;4.50;0.52;;;;;;;11.98;74.16;100268.84;5030402;28;20412;-75
2023/04/11 06:19:48;;;;;;;1.67;0.37;;;;;;;11.92;74.34;100269.88;5022402;28;20395;-75
2023/04/11 06:22:13;;;;;;;2.85;0.70;;;;;;;11.95;73.95;100262.00;5028975;28;20913;-75
2023/04/11 06:24:39;;;;;;;3.47;0.70;;;;;;;12.03;73.75;100268.06;5020534;28;20482;-75
2023/04/11 06:27:08;;;;;;;2.80;0.63;;;;;;;12.07;73.55;100270.00;5029374;28;20505;-76
2023/04/11 06:29:34;;;;;;;3.33;1.00;;;;;;;12.12;73.30;100272.75;5042545;28;20418;-74
2023/04/11 06:31:59;;;;;;;3.40;0.50;;;;;;;12.18;72.87;100289.94;5050621;28;20391;-75
2023/04/11 06:34:24;;;;;;;2.35;0.73;;;;;;;12.11;72.85;100281.16;5023487;28;20416;-75
2023/04/11 06:36:50;;;;;;;3.07;0.60;;;;;;;12.13;72.79;100287.97;5028524;28;20509;-75
2023/04/11 06:39:21;;;;;;;4.32;0.80;;;;;;;12.09;72.56;100296.88;5039284;28;20440;-75
2023/04/11 06:41:47;;;;;;;7.38;0.77;;;;;;;12.10;72.37;100299.34;5023377;28;20414;-74
2023/04/11 06:44:12;;;;;;;2.50;0.50;;;;;;;12.15;72.38;100288.53;5046213;28;20409;-74
2023/04/11 06:46:38;;;;;;;4.97;0.70;;;;;;;12.26;71.89;100290.25;5048754;28;20406;-74
2023/04/11 06:49:06;;;;;;;4.77;0.70;;;;;;;12.27;72.06;100307.38;5030890;28;20437;-74
2023/04/11 06:51:34;;;;;;;4.85;0.75;;;;;;;12.48;71.61;100298.28;5031207;28;20446;-74
2023/04/11 06:54:00;;;;;;;1.55;0.93;;;;;;;12.48;71.27;100293.66;5030689;28;20894;-75
2023/04/11 06:56:25;;;;;;;2.28;0.70;;;;;;;12.54;70.90;100313.56;5036576;28;20418;-74
2023/04/11 06:58:51;;;;;;;3.73;0.70;;;;;;;12.74;70.59;100323.75;5031189;28;20393;-75
2023/04/11 07:01:19;;;;;;;3.55;0.65;;;;;;;12.87;69.74;100329.56;5025900;28;20502;-74
2023/04/11 07:03:46;;;;;;;4.28;0.70;;;;;;;12.92;69.80;100335.03;5020002;28;20503;-74
2023/04/11 07:06:11;;;;;;;3.38;0.80;;;;;;;13.00;69.52;100333.72;5030903;28;20411;-74
2023/04/11 07:08:37;;;;;;;1.30;0.60;;;;;;;13.13;69.22;100336.00;5035959;28;20946;-74
2023/04/11 07:11:02;;;;;;;3.05;0.80;;;;;;;13.18;68.56;100338.72;5028332;28;20399;-74
2023/04/11 07:13:27;;;;;;;3.63;0.70;;;;;;;13.23;68.38;100336.03;5026141;28;20419;-74
2023/04/11 07:15:52;;;;;;;4.43;1.30;;;;;;;13.22;68.20;100334.41;5030469;28;20461;-75
2023/04/11 07:18:18;;;;;;;6.60;0.97;;;;;;;13.23;67.94;100336.03;5024933;28;20489;-75
2023/04/11 07:20:43;;;;;;;2.83;0.90;;;;;;;13.07;68.46;100331.59;5033009;28;20918;-75
2023/04/11 07:23:08;;;;;;;5.43;1.20;;;;;;;13.18;68.06;100338.72;5028284;28;20418;-76
2023/04/11 07:25:34;;;;;;;5.40;1.60;;;;;;;13.35;68.04;100342.06;5030891;28;20928;-76
2023/04/11 07:27:59;;;;;;;3.03;0.90;;;;;;;13.47;67.83;100329.03;5029226;28;20713;-75
2023/04/11 07:30:25;;;;;;;4.60;1.20;;;;;;;13.52;67.58;100331.81;5033379;28;20395;-75
2023/04/11 07:32:51;;;;;;;4.30;0.70;;;;;;;13.53;67.36;100333.41;5029055;28;20462;-75
2023/04/11 07:35:16;;;;;;;4.83;0.87;;;;;;;13.46;67.14;100341.03;5025907;28;21238;-75
2023/04/11 07:37:41;;;;;;;2.37;0.70;;;;;;;13.43;66.21;100338.03;5029016;28;20541;-75
2023/04/11 07:40:10;;;;;;;2.63;0.90;;;;;;;13.41;65.82;100342.91;5016226;28;20436;-75
2023/04/11 07:42:36;;;;;;;2.20;0.70;;;;;;;13.37;65.45;100329.00;5031534;28;20853;-75
2023/04/11 07:45:01;;;;;;;4.40;0.80;;;;;;;13.47;65.76;100334.50;5027236;28;20482;-77
2023/04/11 07:47:27;;;;;;;8.73;1.10;;;;;;;13.59;65.11;100342.44;5041549;28;20395;-76
2023/04/11 07:49:52;;;;;;;7.00;1.13;;;;;;;13.74;64.20;100333.47;5028981;28;20402;-74
2023/04/11 07:52:17;;;;;;;3.00;0.90;;;;;;;13.68;64.24;100329.13;5025032;28;20421;-74
2023/04/11 07:54:43;;;;;;;4.33;0.90;;;;;;;13.72;63.72;100333.78;5025247;28;20978;-74
2023/04/11 07:57:08;;;;;;;0.93;0.50;;;;;;;13.79;63.21;100344.41;5031547;28;20446;-74
2023/04/11 07:59:33;;;;;;;5.80;1.10;;;;;;;13.89;62.79;100339.81;5023855;28;20409;-76
2023/04/11 08:02:00;;;;;;;3.27;0.73;;;;;;;13.80;61.67;100330.50;5028484;28;20409;-75
2023/04/11 08:04:30;;;;;;;7.22;1.00;;;;;;;13.77;62.12;100336.50;5037141;28;20758;-75
2023/04/11 08:06:55;;;;;;;4.10;1.00;;;;;;;13.73;62.06;100337.31;5033110;28;20547;-75
2023/04/11 08:09:21;;;;;;;5.53;1.20;;;;;;;13.62;61.88;100346.53;5035313;28;20519;-75
2023/04/11 08:11:46;;;;;;;6.80;1.10;;;;;;;13.60;61.49;100341.34;5034726;28;20418;-75
2023/04/11 08:14:11;;;;;;;4.57;1.52;;;;;;;13.51;61.57;100351.94;5034130;28;20423;-75
2023/04/11 08:16:36;;;;;;;4.23;0.93;;;;;;;13.56;61.27;100347.59;5037285;28;20738;-75
2023/04/11 08:19:02;;;;;;;7.47;1.20;;;;;;;13.62;61.14;100346.53;5031130;28;20401;-75
2023/04/11 08:21:27;;;;;;;6.30;1.13;;;;;;;13.75;61.19;100346.84;5023163;28;20840;-76
2023/04/11 08:23:52;;;;;;;5.67;1.30;;;;;;;13.86;60.55;100348.50;5017093;28;20434;-75
2023/04/11 08:26:18;;;;;;;6.13;1.00;;;;;;;13.92;60.10;100347.44;5038289;28;20431;-75
2023/04/11 08:28:44;;;;;;;5.75;1.40;;;;;;;13.95;60.12;100346.06;5027882;28;20402;-75
2023/04/11 08:31:11;;;;;;;4.53;1.50;;;;;;;13.98;59.52;100359.16;5027630;28;20473;-75
2023/04/11 08:33:38;;;;;;;6.10;1.10;;;;;;;13.99;58.16;100352.63;5029862;28;20402;-75
2023/04/11 08:36:04;;;;;;;4.20;1.00;;;;;;;13.90;57.60;100351.50;5016465;28;20401;-76
2023/04/11 08:38:29;;;;;;;5.53;1.30;;;;;;;13.97;57.00;100352.06;5029720;28;20466;-75
2023/04/11 08:40:55;;;;;;;3.47;1.23;;;;;;;13.96;56.37;100364.84;5024866;28;20649;-75
2023/04/11 08:43:20;;;;;;;4.93;1.03;;;;;;;14.11;56.58;100363.25;5025395;28;20423;-75
2023/04/11 08:45:46;;;;;;;8.87;1.80;;;;;;;14.25;55.86;100375.28;5027776;28;20767;-75
2023/04/11 08:48:11;;;;;;;7.47;2.50;;;;;;;14.35;55.21;100361.69;5029197;28;20465;-75
2023/04/11 08:50:39;;;;;;;6.43;1.67;;;;;;;14.49;55.22;100362.75;5027869;28;20448;-75
2023/04/11 08:53:07;;;;;;;5.15;1.00;;;;;;;14.69;54.47;100361.94;5031171;28;20407;-75
2023/04/11 08:55:32;;;;;;;4.07;1.35;;;;;;;14.77;54.20;100364.13;5026325;28;20403;-75
2023/04/11 08:58:01;;;;;;;3.70;1.47;;;;;;;14.74;53.55;100357.31;5025181;28;20407;-75
2023/04/11 09:00:28;;;;;;;6.20;1.15;;;;;;;14.84;53.88;100356.47;5045638;28;20490;-75
2023/04/11 09:03:01;;;;;;;2.63;0.65;;;;;;;15.17;53.12;100366.78;5020806;28;20894;-75
2023/04/11 09:05:34;;;;;;;4.60;1.33;;;;;;;15.60;52.36;100362.56;5028108;28;20418;-75
2023/04/11 09:08:02;;;;;;;7.93;1.27;;;;;;;15.47;51.79;100360.41;5031465;28;20406;-75
2023/04/11 09:10:27;;;;;;;7.67;1.80;;;;;;;15.39;51.67;100364.53;5027649;28;20961;-75
2023/04/11 09:12:54;;;;;;;6.80;1.13;;;;;;;15.37;51.23;100364.00;5035348;28;20409;-75
2023/04/11 09:15:22;;;;;;;6.20;1.17;;;;;;;15.29;50.86;100372.75;5020943;28;20474;-75
2023/04/11 09:17:48;;;;;;;3.83;0.90;;;;;;;15.20;49.91;100374.41;5036420;28;20420;-75
2023/04/11 09:20:25;;;;;;;4.65;0.98;;;;;;;15.53;49.08;100360.13;5012226;28;20396;-75
2023/04/11 09:22:51;;;;;;;4.07;1.17;;;;;;;15.98;48.33;100363.72;5026540;28;20774;-75
2023/04/11 09:25:18;;;;;;;4.85;1.20;;;;;;;16.05;47.26;100358.75;5025603;28;20449;-74
2023/04/11 09:27:43;;;;;;;5.95;1.17;;;;;;;15.54;48.37;100369.16;5029686;28;20442;-75
2023/04/11 09:30:23;;;;;;;4.80;1.43;;;;;;;15.41;48.11;100358.78;5031344;28;20892;-74
2023/04/11 09:32:51;;;;;;;51.90;5.10;;;;;;;15.41;47.99;100353.34;5027075;28;20932;-75
2023/04/11 09:35:23;;;;;;;5.30;1.33;;;;;;;15.36;48.21;100367.00;5027646;28;20406;-75
2023/04/11 09:37:52;;;;;;;5.38;1.17;;;;;;;15.37;48.62;100363.16;5027817;28;20391;-76
2023/04/11 09:40:19;;;;;;;16.92;3.30;;;;;;;15.55;48.13;100368.84;5046348;28;20392;-76
2023/04/11 09:42:45;;;;;;;66.57;7.53;;;;;;;15.86;46.96;100364.06;5028785;28;20423;-74
2023/04/11 09:45:22;;;;;;;103.88;13.88;;;;;;;16.00;46.93;100358.81;5019965;28;20400;-74
2023/04/11 09:47:49;;;;;;;57.10;28.23;;;;;;;16.13;46.67;100363.63;5025253;28;20456;-76
2023/04/11 09:50:15;;;;;;;292.77;113.13;;;;;;;16.08;45.49;100363.66;5028196;28;20461;-77
2023/04/11 09:52:44;;;;;;;1559.77;561.20;;;;;;;15.55;45.88;100368.03;5031338;28;20438;-74
2023/04/11 09:55:15;;;;;;;1540.28;566.65;;;;;;;16.02;45.88;100373.00;5023223;28;20414;-74
2023/04/11 09:57:44;;;;;;;1999.90;898.13;;;;;;;16.32;44.54;100377.44;5029952;28;20395;-75
2023/04/11 10:00:18;;;;;;;1999.90;824.58;;;;;;;16.99;43.53;100366.47;5023949;28;20392;-74
2023/04/11 10:02:45;;;;;;;1999.90;861.37;;;;;;;16.53;44.08;100392.59;5029136;28;20441;-73
2023/04/11 10:05:13;;;;;;;1999.90;784.85;;;;;;;16.05;44.97;100383.34;5016623;28;20749;-72
2023/04/11 10:07:52;;;;;;;1999.90;773.03;;;;;;;15.77;45.59;100395.00;5029351;28;20418;-75
2023/04/11 10:10:20;;;;;;;1999.90;665.63;;;;;;;15.62;46.55;100387.69;5024418;28;20391;-75
2023/04/11 10:12:46;;;;;;;1999.90;800.88;;;;;;;15.95;46.29;100386.97;5033047;28;20866;-75
2023/04/11 10:15:11;;;;;;;1999.90;999.90;;;;;;;15.88;45.93;100378.25;5034888;28;20422;-75
2023/04/11 10:17:38;;;;;;;1999.90;996.73;;;;;;;15.75;46.56;100378.06;5018299;28;20395;-75
2023/04/11 10:20:39;;;;;;;1694.20;812.95;;;;;;;15.50;47.55;100382.56;5028264;28;20408;-75
2023/04/11 10:23:04;;;;;;;955.42;536.50;;;;;;;15.38;48.11;100379.25;5028988;28;20855;-75
2023/04/11 10:25:30;;;;;;;246.93;144.27;;;;;;;15.82;47.98;100375.84;5034882;28;20427;-75
2023/04/11 10:28:05;;;;;;;544.10;173.73;;;;;;;16.70;46.62;100379.34;5026837;28;20792;-75
2023/04/11 10:30:43;;;;;;;1098.47;597.65;;;;;;;17.68;43.58;100370.66;5025708;28;20407;-75
2023/04/11 10:33:14;;;;;;;1021.60;580.03;;;;;;;16.99;44.90;100384.84;5033283;28;20548;-75
2023/04/11 10:36:00;;;;;;;1728.10;929.22;;;;;;;17.09;45.14;100377.31;5039862;28;20823;-75
2023/04/11 10:38:47;;;;;;;1999.90;999.90;;;;;;;17.94;43.04;100360.16;5019697;28;20432;-74
2023/04/11 10:41:16;;;;;;;1999.90;999.90;;;;;;;18.40;41.49;100363.03;5025498;28;20491;-74
2023/04/11 10:43:42;;;;;;;1999.90;999.90;;;;;;;18.34;41.41;100366.97;5014816;28;20419;-75
2023/04/11 10:46:25;;;;;;;1999.90;999.90;;;;;;;19.36;40.23;100375.91;5042351;28;20395;-75
2023/04/11 10:49:02;;;;;;;1999.90;975.58;;;;;;;19.82;38.81;100363.97;5032854;28;20383;-75
2023/04/11 10:51:30;;;;;;;1381.35;506.42;;;;;;;19.95;37.21;100374.13;5029425;28;20417;-75
2023/04/11 10:53:58;;;;;;;1999.90;999.90;;;;;;;19.78;37.41;100374.78;5025178;28;20419;-75
2023/04/11 10:56:56;;;;;;;1999.90;999.90;;;;;;;19.29;37.68;100371.91;5017703;28;20564;-75
2023/04/11 10:59:30;;;;;;;1999.90;999.90;;;;;;;19.12;37.92;100370.56;4998959;28;20972;-75
2023/04/11 11:02:00;;;;;;;1999.90;999.90;;;;;;;19.40;36.74;100373.31;5034214;28;20897;-76
2023/04/11 11:04:36;;;;;;;721.17;132.32;;;;;;;19.87;35.91;100381.16;5030324;28;20420;-74
2023/04/11 11:07:03;;;;;;;1872.97;434.85;;;;;;;19.59;35.56;100369.38;5020628;28;20391;-75
2023/04/11 11:09:30;;;;;;;1999.90;864.67;;;;;;;19.38;36.06;100370.06;5028850;28;20449;-75
2023/04/11 11:12:15;;;;;;;1999.90;920.72;;;;;;;19.06;36.73;100362.72;5034219;28;20495;-75
2023/04/11 11:14:43;;;;;;;1999.90;752.50;;;;;;;18.87;36.73;100359.25;5035844;28;20397;-75
2023/04/11 11:17:11;;;;;;;22.33;20.70;;;;;;;18.54;37.57;100363.94;5022962;28;20395;-75
2023/04/11 11:19:36;;;;;;;5.70;2.72;;;;;;;19.41;36.02;100364.81;5031160;28;20403;-75
2023/04/11 11:22:05;;;;;;;5.53;1.20;;;;;;;20.35;35.22;100367.69;5033949;28;20961;-75